Aviation Discussion


.AVIATION /07Z TUESDAY THROUGH SATURDAY/...
AFTER SOME EARLIER SHOWER/TSTMS PASSED NEAR THE DC/BALT METRO
AREAS A FEW HRS AGO...SKIES HAVE GENERALLY CLEARED OUT. MORE
CLOUDS ON THE WAY FROM THE WEST...AS WELL AS A FEW SHOWERS THAT
WILL LIKELY DISSIPATE TOWARD DAWN. A WSW WIND DURING THE DAYTIME
HRS...W/ SCTD SHOWERS AND TSTMS EXPECTED TO DEVELOP LATE TODAY -
SURROUNDING THE 00Z TIME PERIOD - W/IN A COUPLE HRS EITHER SIDE.
SOME EARLIER ACTIVITY POSSIBLE...AFTER 18Z BUT TIMING/PLACEMENT
CONFIDENCE IS LOW ATTM. A COLD FRONT WILL PUSH THIS ACTIVITY OFF
THE COAST LATE TONIGHT AND CLEAR OUT THE AREA FOR WED. 

FOG WEDNESDAY NIGHT UNDER HIGH PRESSURE. LIGHT SLY RETURN FLOW
THURSDAY AND FRIDAY WITH MAINLY AFTERNOON CHANCES FOR
THUNDERSTORMS. COLD FRONT ENTERS THE AREA LATE SATURDAY WITH
THUNDERSTORMS AHEAD OF IT.

 

Terminal Aviation Forecasts

TAFBWI (View previous versions )
KBWI 021135Z 0212/0318 VRB04KT P6SM FEW130 SCT250
     FM021600 24008KT P6SM SCT050 BKN080
     FM022200 23011KT P6SM VCTS SCT030CB BKN050
     FM030100 22006KT P6SM BKN050
     FM030600 30007KT P6SM BKN150=

TAFCHO (View previous versions )
KCHO 021135Z 0212/0312 20004KT P6SM SCT100
     FM021600 24008KT P6SM SCT050 BKN070
     FM022000 23008KT P6SM VCTS SCT030CB BKN060
     FM030000 24006KT P6SM BKN050
     FM030800 00000KT 2SM BR BKN200=

TAFDCA (View previous versions )
KDCA 021135Z 0212/0312 20006KT P6SM FEW130 SCT250
     FM021600 23008KT P6SM SCT050 BKN090
     FM022100 22009KT P6SM VCTS SCT030CB BKN060
     FM030000 25007KT P6SM BKN050
     FM030800 31006KT P6SM BKN200=

TAFIAD (View previous versions )
KIAD 021135Z 0212/0318 20006KT P6SM FEW130 SCT250
     FM021600 25007KT P6SM SCT050 BKN100
     FM022000 22009KT P6SM VCTS SCT030CB BKN050
     FM030000 24005KT P6SM OVC050
     FM030600 30005KT P6SM BKN150
     FM031400 34007KT P6SM SCT200=

TAFMRB (View previous versions )
KMRB 021135Z 0212/0312 18005KT P6SM SCT100
     FM021600 25008KT P6SM SCT050 BKN100
     FM022000 23009KT P6SM VCTS SCT030CB OVC050
     FM030000 25007KT P6SM SCT040 BKN060
     FM030800 29005KT 5SM BR BKN250
     FM031000 29004KT P6SM SCT250=

TAFMTN (View previous versions )
KMTN 021135Z 0212/0312 26005KT P6SM FEW200
     FM021600 23007KT P6SM SCT050 BKN080
     FM022200 22009KT P6SM VCTS SCT030CB BKN050
     FM030200 21006KT P6SM BKN050
     FM031000 31006KT P6SM SCT250=


Meteorological Impact Statement

ZDC MIS 02 VALID 012055-020300
...FOR ATC PLANNING PURPOSES ONLY...
SCT SHRA/TSRA NE ZDC...ISOLD-WDLY SCT REST OF VA N & E NC. TOPS ABV 
FL400 MOV NE TO E 15-25KT. HEAVY RAINFALL AND VRB WINDS 20G30KT W/ 
TSRA.

Surface Map


TRACON Thunderstorm Forecast


Vertical Wind Profiles